createdAt,value
2022-12-13T00:02:46.532Z,41.45
2022-12-13T00:07:51.536Z,46.28
2022-12-13T00:12:55.112Z,45.92
2022-12-13T00:17:58.615Z,48.88
2022-12-13T00:23:03.497Z,38.58
2022-12-13T00:28:06.980Z,41.85
2022-12-13T00:33:11.413Z,41.20
2022-12-13T00:38:16.278Z,46.00
2022-12-13T00:43:19.762Z,39.20
2022-12-13T00:48:23.935Z,37.08
2022-12-13T00:53:28.792Z,41.05
2022-12-13T00:58:32.440Z,43.47
2022-12-13T01:03:36.419Z,44.50
2022-12-13T01:08:41.359Z,38.55
2022-12-13T01:13:45.105Z,42.25
2022-12-13T01:18:48.711Z,43.60
2022-12-13T01:23:53.739Z,36.20
2022-12-13T01:28:57.249Z,40.45
2022-12-13T01:34:00.753Z,39.30
2022-12-13T01:39:14.342Z,35.40
2022-12-13T01:45:08.066Z,39.40
2022-12-13T01:50:14.765Z,44.45
2022-12-13T01:55:21.365Z,37.75
2022-12-13T02:00:26.049Z,46.67
2022-12-13T02:05:34.891Z,36.88
2022-12-13T02:10:40.376Z,36.20
2022-12-13T02:15:52.632Z,36.88
2022-12-13T02:21:17.232Z,39.65
2022-12-13T02:26:54.004Z,37.58
2022-12-13T02:32:05.865Z,39.22
2022-12-13T02:37:19.670Z,39.45
2022-12-13T02:42:28.903Z,36.78
2022-12-13T02:47:35.094Z,41.17
2022-12-13T02:52:40.577Z,38.88
2022-12-13T02:57:48.091Z,38.15
2022-12-13T03:03:08.376Z,39.70
2022-12-13T03:08:22.093Z,35.05
2022-12-13T03:13:39.989Z,45.55
2022-12-13T03:18:46.579Z,32.17
2022-12-13T03:23:53.883Z,33.92
2022-12-13T03:28:57.447Z,37.38
2022-12-13T03:34:03.230Z,39.17
2022-12-13T03:39:06.895Z,39.15
2022-12-13T03:44:10.571Z,34.88
2022-12-13T03:49:17.640Z,38.55
2022-12-13T03:54:21.307Z,40.70
2022-12-13T03:59:24.858Z,40.22
2022-12-13T04:04:29.781Z,36.05
2022-12-13T04:09:33.357Z,38.75
2022-12-13T04:14:36.962Z,35.63
2022-12-13T04:19:41.856Z,43.70
2022-12-13T04:24:45.463Z,40.25
2022-12-13T04:29:48.984Z,37.72
2022-12-13T04:35:01.545Z,40.17
2022-12-13T04:40:06.417Z,37.88
2022-12-13T04:45:16.215Z,36.90
2022-12-13T04:50:21.351Z,25.67
2022-12-13T04:55:24.941Z,39.38
2022-12-13T05:00:28.735Z,42.80
2022-12-13T05:05:33.682Z,40.03
2022-12-13T05:10:38.143Z,37.13
2022-12-13T05:15:41.791Z,44.63
2022-12-13T05:20:46.732Z,41.97
2022-12-13T05:25:50.281Z,38.13
2022-12-13T05:30:54.306Z,38.38
2022-12-13T05:36:02.043Z,50.45
2022-12-13T05:41:06.246Z,41.25
2022-12-13T05:46:09.840Z,38.78
2022-12-13T05:51:14.927Z,42.00
2022-12-13T05:56:22.828Z,36.75
2022-12-13T06:01:27.185Z,36.08
2022-12-13T06:06:32.105Z,42.33
2022-12-13T06:11:35.701Z,38.38
2022-12-13T06:16:47.144Z,37.75
2022-12-13T06:21:54.592Z,39.20
2022-12-13T06:27:00.257Z,42.70
2022-12-13T06:32:04.860Z,38.05
2022-12-13T06:37:13.499Z,43.63
2022-12-13T06:42:21.815Z,45.65
2022-12-13T06:47:31.700Z,45.75
2022-12-13T06:52:37.864Z,41.95
2022-12-13T06:57:41.586Z,49.40
2022-12-13T07:02:45.411Z,49.80
2022-12-13T07:07:50.620Z,54.17
2022-12-13T07:12:54.200Z,49.78
2022-12-13T07:17:57.687Z,47.75
2022-12-13T07:23:02.567Z,42.65
2022-12-13T07:28:08.515Z,56.42
2022-12-13T07:33:12.240Z,38.63
2022-12-13T07:38:17.480Z,45.90
2022-12-13T07:43:22.044Z,41.47
2022-12-13T07:48:27.366Z,43.05
2022-12-13T07:53:33.457Z,44.75
2022-12-13T07:58:38.202Z,44.50
2022-12-13T08:03:42.048Z,51.35
2022-12-13T08:08:51.105Z,46.25
2022-12-13T08:13:55.252Z,50.47
2022-12-13T08:19:02.795Z,47.83
2022-12-13T08:24:15.405Z,47.42
2022-12-13T08:29:22.870Z,46.13
2022-12-13T08:34:38.040Z,52.25
2022-12-13T08:39:42.964Z,48.22
2022-12-13T08:44:49.726Z,49.50
2022-12-13T08:49:54.755Z,48.95
2022-12-13T08:54:59.894Z,50.15
2022-12-13T09:00:05.280Z,52.65
2022-12-13T09:05:11.162Z,54.70
2022-12-13T09:10:26.882Z,57.92
2022-12-13T09:20:40.740Z,63.75
2022-12-13T09:25:52.815Z,52.45
2022-12-13T09:30:57.519Z,48.17
2022-12-13T09:36:06.102Z,48.20
2022-12-13T09:41:20.401Z,52.17
2022-12-13T09:46:44.796Z,48.65
2022-12-13T09:52:10.292Z,50.25
2022-12-13T09:57:32.796Z,59.13
2022-12-13T10:02:44.360Z,46.72
2022-12-13T10:07:48.228Z,53.90
2022-12-13T10:12:59.422Z,50.72
2022-12-13T10:18:05.534Z,61.97
2022-12-13T10:23:33.294Z,51.70
2022-12-13T10:28:35.166Z,62.90
2022-12-13T10:33:53.232Z,52.83
2022-12-13T10:39:00.195Z,54.97
2022-12-13T10:44:21.653Z,58.33
2022-12-13T10:49:30.559Z,54.38
2022-12-13T10:54:38.940Z,50.83
2022-12-13T10:59:53.961Z,61.03
2022-12-13T11:04:58.943Z,61.75
2022-12-13T11:10:23.676Z,60.33
2022-12-13T11:15:35.873Z,59.13
2022-12-13T11:20:52.696Z,51.17
2022-12-13T11:26:00.883Z,51.45
2022-12-13T11:31:16.268Z,49.00
2022-12-13T11:36:30.965Z,52.08
2022-12-13T11:41:40.316Z,52.03
2022-12-13T11:46:49.583Z,50.25
2022-12-13T11:51:58.463Z,54.05
2022-12-13T11:57:08.038Z,52.33
2022-12-13T12:02:20.946Z,56.50
2022-12-13T12:07:33.845Z,56.42
2022-12-13T12:12:39.541Z,51.30
2022-12-13T12:17:45.621Z,57.67
2022-12-13T12:23:00.484Z,55.30
2022-12-13T12:28:15.269Z,48.88
2022-12-13T12:33:30.068Z,56.10
2022-12-13T12:39:26.580Z,54.20
2022-12-13T12:44:40.528Z,58.03
2022-12-13T12:50:10.717Z,52.72
2022-12-13T13:00:32.046Z,53.85
2022-12-13T13:05:41.377Z,57.15
2022-12-13T13:10:50.135Z,54.10
2022-12-13T13:15:56.481Z,55.33
2022-12-13T13:21:30.081Z,54.22
2022-12-13T13:26:38.881Z,61.22
2022-12-13T13:32:01.579Z,50.90
2022-12-13T13:37:26.751Z,48.47
2022-12-13T13:42:32.762Z,49.88
2022-12-13T13:47:40.108Z,52.13
2022-12-13T13:52:58.791Z,54.95
2022-12-13T13:58:34.529Z,48.17
2022-12-13T14:04:10.278Z,55.30
2022-12-13T14:09:59.360Z,50.10
2022-12-13T14:15:41.593Z,45.13
2022-12-13T14:21:10.485Z,51.17
2022-12-13T14:31:26.786Z,54.17
2022-12-13T14:36:35.406Z,56.28
2022-12-13T14:41:46.913Z,51.53
2022-12-13T14:46:54.813Z,57.47
2022-12-13T14:52:02.946Z,49.75
2022-12-13T14:57:06.476Z,51.55
2022-12-13T15:02:18.912Z,53.10
2022-12-13T15:07:38.641Z,55.65
2022-12-13T15:12:43.780Z,53.38
2022-12-13T15:17:48.974Z,53.28
2022-12-13T15:23:02.505Z,55.58
2022-12-13T15:28:21.201Z,51.95
2022-12-13T15:33:33.519Z,49.88
2022-12-13T15:38:49.454Z,58.33
2022-12-13T15:43:56.273Z,47.20
2022-12-13T15:49:03.396Z,52.65
2022-12-13T15:54:19.353Z,60.65
2022-12-13T16:04:34.632Z,54.72
2022-12-13T16:09:39.939Z,58.95
2022-12-13T16:14:49.183Z,49.25
2022-12-13T16:19:56.523Z,68.88
2022-12-13T16:25:00.736Z,59.53
2022-12-13T16:30:15.210Z,92.50
2022-12-13T16:35:21.535Z,53.03
2022-12-13T16:40:32.032Z,55.55
2022-12-13T16:45:41.946Z,76.68
2022-12-13T16:50:48.686Z,55.42
2022-12-13T16:56:02.267Z,59.25
2022-12-13T17:01:10.164Z,60.13
2022-12-13T17:06:20.633Z,50.10
2022-12-13T17:11:24.518Z,41.83
2022-12-13T17:16:28.204Z,54.22
2022-12-13T17:21:33.359Z,55.72
2022-12-13T17:26:37.751Z,51.00
2022-12-13T17:31:41.501Z,48.40
2022-12-13T17:36:46.551Z,48.50
2022-12-13T17:41:54.401Z,53.00
2022-12-13T17:46:59.339Z,54.53
2022-12-13T17:52:04.399Z,51.28
2022-12-13T17:57:10.628Z,57.85
2022-12-13T18:02:14.742Z,51.47
2022-12-13T18:07:20.479Z,51.63
2022-12-13T18:12:24.195Z,48.40
2022-12-13T18:17:46.633Z,52.35
2022-12-13T18:22:53.034Z,51.35
2022-12-13T18:28:00.831Z,54.35
2022-12-13T18:33:05.556Z,55.08
2022-12-13T18:38:10.879Z,45.17
2022-12-13T18:43:14.773Z,60.53
2022-12-13T18:48:18.468Z,46.72
2022-12-13T18:53:23.954Z,45.30
2022-12-13T18:58:27.787Z,51.95
2022-12-13T19:03:32.102Z,50.88
2022-12-13T19:08:37.474Z,54.53
2022-12-13T19:13:41.271Z,48.35
2022-12-13T19:18:45.286Z,49.33
2022-12-13T19:23:56.767Z,51.40
2022-12-13T19:29:01.149Z,48.78
2022-12-13T19:34:05.061Z,50.90
2022-12-13T19:39:12.501Z,51.67
2022-12-13T19:44:16.335Z,48.13
2022-12-13T19:49:22.094Z,49.15
2022-12-13T19:54:28.457Z,51.42
2022-12-13T19:59:32.294Z,47.67
2022-12-13T20:04:36.274Z,47.80
2022-12-13T20:09:42.232Z,51.90
2022-12-13T20:14:45.809Z,58.53
2022-12-13T20:19:49.718Z,56.95
2022-12-13T20:24:54.932Z,50.75
2022-12-13T20:29:58.707Z,52.80
2022-12-13T20:35:02.918Z,52.20
2022-12-13T20:40:09.048Z,54.15
2022-12-13T20:45:13.798Z,47.50
2022-12-13T20:50:21.701Z,49.38
2022-12-13T20:55:26.829Z,47.72
2022-12-13T21:00:31.214Z,44.72
2022-12-13T21:05:34.747Z,47.50
2022-12-13T21:10:41.455Z,48.78
2022-12-13T21:15:46.040Z,48.58
2022-12-13T21:20:50.195Z,46.35
2022-12-13T21:25:55.631Z,40.50
2022-12-13T21:31:00.545Z,42.85
2022-12-13T21:36:12.494Z,43.70
2022-12-13T21:41:17.372Z,43.05
2022-12-13T21:46:22.537Z,39.75
2022-12-13T21:51:30.745Z,37.15
2022-12-13T21:56:53.448Z,43.65
2022-12-13T22:02:16.303Z,37.97
2022-12-13T22:07:22.644Z,47.25
2022-12-13T22:12:34.495Z,38.47
2022-12-13T22:17:38.786Z,42.05
2022-12-13T22:22:44.360Z,41.30
2022-12-13T22:27:49.957Z,39.78
2022-12-13T22:32:54.085Z,39.95
2022-12-13T22:38:01.559Z,38.47
2022-12-13T22:43:06.716Z,41.00
2022-12-13T22:48:10.585Z,40.33
2022-12-13T22:53:14.439Z,42.45
2022-12-13T22:58:19.344Z,38.25
2022-12-13T23:03:22.816Z,36.15
2022-12-13T23:08:26.657Z,35.03
2022-12-13T23:13:31.786Z,37.58
2022-12-13T23:18:35.311Z,31.17
2022-12-13T23:23:38.814Z,34.38
2022-12-13T23:28:46.171Z,39.13
2022-12-13T23:33:49.735Z,35.75
2022-12-13T23:38:53.545Z,38.03
2022-12-13T23:44:00.017Z,35.13
2022-12-13T23:49:05.772Z,31.80
2022-12-13T23:54:11.830Z,30.75
2022-12-13T23:59:16.825Z,30.75
